PAKT/KTN METAR and TAF weather

Enter ICAO airport designator
Station Type Date Time Source
PAKT METAR 2019/04/25 17:53 UTC NOAA

PAKT 251753Z 14009KT 10SM -RA SCT017 BKN024 OVC032 04/03 A3031 RMK AO2 SLP265 HARBOR WIND 14007KT P0002 60007 T00390028 10039 20017 56005


Station Type Date Time Source
PAKT Decoded METAR 2019/04/25 17:53 UTC NOAA

KETCHIKAN INTERNATIONAL AIRPORT , AK, United States (PAKT) 55-21N 131-43W 25M
Apr 25, 2019 - 01:53 PM EDT / 2019.04.25 1753 UTC
Wind: from the SE (140 degrees) at 10 MPH (9 KT):0
Visibility: 10 mile(s):0
Sky conditions: overcast
Weather: light rain
Precipitation last hour: 0.02 inches
Temperature: 39.0 F (3.9 C)
Dew Point: 37.0 F (2.8 C)
Relative Humidity: 92%
Pressure (altimeter): 30.31 in. Hg (1026 hPa)
Pressure tendency: 0.01 inches (0.5 hPa) lower than three hours ago
ob: PAKT 251753Z 14009KT 10SM -RA SCT017 BKN024 OVC032 04/03 A3031 RMK AO2 SLP265 HARBOR WIND 14007KT P0002 60007 T00390028 10039 20017 56005
cycle: 18

Station Type Date Time Source
PAKT TAF 2019/04/25 18:36 UTC NOAA

TAF PAKT 251733Z 2518/2618 16006KT P6SM -SHRA SCT015 BKN025 OVC035
TEMPO 2518/2520 -SHRA BKN015 OVC025
FM252000 13009KT P6SM -SHRA SCT025 OVC040
FM260800 14007KT P6SM -RA BKN020 OVC030
AMD LTD TO CLD VIS AND WIND 2606/2615

Example: see airport list